createdAt,value
2019-04-14T00:02:14.180Z,100.00
2019-04-14T00:04:40.147Z,100.00
2019-04-14T00:07:06.387Z,100.00
2019-04-14T00:09:33.703Z,100.00
2019-04-14T00:11:59.119Z,100.00
2019-04-14T00:14:25.367Z,100.00
2019-04-14T00:16:51.671Z,100.00
2019-04-14T00:19:17.985Z,100.00
2019-04-14T00:21:45.371Z,100.00
2019-04-14T00:24:11.575Z,100.00
2019-04-14T00:26:37.928Z,100.00
2019-04-14T00:29:04.466Z,100.00
2019-04-14T00:31:30.723Z,100.00
2019-04-14T00:33:56.353Z,100.00
2019-04-14T00:36:22.260Z,100.00
2019-04-14T00:38:49.652Z,100.00
2019-04-14T00:41:15.917Z,100.00
2019-04-14T00:43:41.726Z,100.00
2019-04-14T00:46:07.955Z,100.00
2019-04-14T00:48:34.205Z,100.00
2019-04-14T00:51:00.568Z,100.00
2019-04-14T00:53:27.474Z,100.00
2019-04-14T00:55:53.328Z,100.00
2019-04-14T00:58:19.272Z,100.00
2019-04-14T01:00:45.610Z,100.00
2019-04-14T01:03:11.933Z,100.00
2019-04-14T01:05:39.261Z,100.00
2019-04-14T01:08:05.268Z,100.00
2019-04-14T01:10:32.104Z,100.00
2019-04-14T01:12:58.180Z,100.00
2019-04-14T01:15:24.579Z,100.00
2019-04-14T01:17:50.648Z,100.00
2019-04-14T01:20:16.724Z,100.00
2019-04-14T01:22:42.566Z,100.00
2019-04-14T01:25:08.882Z,100.00
2019-04-14T01:27:36.254Z,100.00
2019-04-14T01:30:02.680Z,100.00
2019-04-14T01:32:28.345Z,100.00
2019-04-14T01:34:55.471Z,100.00
2019-04-14T01:37:20.480Z,100.00
2019-04-14T01:39:48.093Z,100.00
2019-04-14T01:42:13.800Z,100.00
2019-04-14T01:44:39.611Z,100.00
2019-04-14T01:47:05.737Z,100.00
2019-04-14T01:49:32.989Z,100.00
2019-04-14T01:51:59.225Z,100.00
2019-04-14T01:54:25.670Z,100.00
2019-04-14T01:56:51.407Z,100.00
2019-04-14T01:59:17.390Z,100.00
2019-04-14T02:01:44.095Z,100.00
2019-04-14T02:04:10.031Z,100.00
2019-04-14T02:06:37.426Z,100.00
2019-04-14T02:09:03.288Z,100.00
2019-04-14T02:11:29.254Z,100.00
2019-04-14T02:13:55.293Z,100.00
2019-04-14T02:16:32.267Z,100.00
2019-04-14T02:18:50.623Z,100.00
2019-04-14T02:21:14.952Z,100.00
2019-04-14T02:23:41.144Z,100.00
2019-04-14T02:26:07.021Z,100.00
2019-04-14T02:28:33.243Z,100.00
2019-04-14T02:31:13.444Z,100.00
2019-04-14T02:33:55.203Z,100.00
2019-04-14T02:36:28.016Z,100.00
2019-04-14T02:38:49.022Z,100.00
2019-04-14T02:43:45.380Z,100.00
2019-04-14T02:50:56.263Z,100.00
2019-04-14T02:53:30.820Z,100.00
2019-04-14T02:55:49.155Z,100.00
2019-04-14T02:58:21.844Z,100.00
2019-04-14T03:00:45.639Z,100.00
2019-04-14T03:03:10.880Z,100.00
2019-04-14T03:05:37.233Z,100.00
2019-04-14T03:08:04.293Z,100.00
2019-04-14T03:10:31.999Z,100.00
2019-04-14T03:13:01.153Z,100.00
2019-04-14T03:15:27.978Z,100.00
2019-04-14T03:17:47.365Z,100.00
2019-04-14T03:20:27.970Z,100.00
2019-04-14T03:22:51.770Z,100.00
2019-04-14T03:24:50.379Z,100.00
2019-04-14T03:27:45.720Z,100.00
2019-04-14T03:30:05.024Z,100.00
2019-04-14T03:35:03.651Z,100.00
2019-04-14T03:37:39.521Z,100.00
2019-04-14T03:42:13.251Z,100.00
2019-04-14T03:44:37.604Z,100.00
2019-04-14T03:49:32.240Z,100.00
2019-04-14T03:51:59.575Z,100.00
2019-04-14T03:54:15.889Z,100.00
2019-04-14T03:56:21.638Z,100.00
2019-04-14T03:58:48.603Z,100.00
2019-04-14T04:01:15.005Z,100.00
2019-04-14T04:03:41.350Z,100.00
2019-04-14T04:06:07.469Z,100.00
2019-04-14T04:08:33.377Z,100.00
2019-04-14T04:10:59.807Z,100.00
2019-04-14T04:13:25.937Z,100.00
2019-04-14T04:15:52.001Z,100.00
2019-04-14T04:18:18.072Z,100.00
2019-04-14T04:20:45.522Z,100.00
2019-04-14T04:23:11.742Z,100.00
2019-04-14T04:25:37.855Z,100.00
2019-04-14T04:28:03.755Z,100.00
2019-04-14T04:30:29.797Z,100.00
2019-04-14T04:32:56.010Z,100.00
2019-04-14T04:35:22.318Z,100.00
2019-04-14T04:37:49.740Z,100.00
2019-04-14T04:40:15.738Z,100.00
2019-04-14T04:42:41.638Z,100.00
2019-04-14T04:45:08.143Z,100.00
2019-04-14T04:47:33.960Z,100.00
2019-04-14T04:50:00.293Z,100.00
2019-04-14T04:52:26.598Z,100.00
2019-04-14T04:54:53.826Z,100.00
2019-04-14T04:57:19.921Z,99.82
2019-04-14T04:59:45.580Z,100.00
2019-04-14T05:02:11.913Z,98.09
2019-04-14T05:04:39.386Z,97.01
2019-04-14T05:07:05.615Z,96.34
2019-04-14T05:09:31.616Z,96.11
2019-04-14T05:11:57.788Z,95.67
2019-04-14T05:14:24.047Z,94.94
2019-04-14T05:16:50.751Z,94.55
2019-04-14T05:19:23.609Z,93.68
2019-04-14T05:21:43.066Z,93.52
2019-04-14T05:24:09.268Z,93.39
2019-04-14T05:26:35.215Z,92.61
2019-04-14T05:29:01.576Z,91.44
2019-04-14T05:31:29.115Z,91.31
2019-04-14T05:33:55.237Z,91.08
2019-04-14T05:36:21.442Z,90.99
2019-04-14T05:38:47.440Z,90.67
2019-04-14T05:41:13.692Z,90.29
2019-04-14T05:43:48.208Z,90.22
2019-04-14T05:46:05.826Z,90.34
2019-04-14T05:48:32.162Z,89.77
2019-04-14T05:50:59.771Z,89.15
2019-04-14T05:53:26.136Z,88.82
2019-04-14T05:55:52.425Z,88.37
2019-04-14T05:58:18.497Z,87.79
2019-04-14T06:00:43.828Z,86.79
2019-04-14T06:03:10.347Z,86.14
2019-04-14T06:05:36.510Z,85.96
2019-04-14T06:08:02.801Z,85.67
2019-04-14T06:10:29.125Z,85.10
2019-04-14T06:12:55.446Z,85.35
2019-04-14T06:15:21.808Z,84.79
2019-04-14T06:17:48.141Z,84.40
2019-04-14T06:20:14.479Z,95.76
2019-04-14T06:22:40.795Z,100.00
2019-04-14T06:25:07.121Z,100.00
2019-04-14T06:27:33.451Z,100.00
2019-04-14T06:29:59.752Z,93.78
2019-04-14T06:32:26.058Z,88.04
2019-04-14T06:34:52.380Z,84.00
2019-04-14T06:37:18.701Z,81.13
2019-04-14T06:39:45.024Z,78.96
2019-04-14T06:42:11.335Z,78.36
2019-04-14T06:44:37.636Z,78.06
2019-04-14T06:47:03.972Z,77.43
2019-04-14T06:49:30.294Z,77.80
2019-04-14T06:51:56.618Z,78.28
2019-04-14T06:54:22.937Z,77.90
2019-04-14T06:56:49.252Z,77.50
2019-04-14T06:59:15.648Z,77.22
2019-04-14T07:01:41.966Z,77.49
2019-04-14T07:04:08.297Z,77.78
2019-04-14T07:06:34.622Z,78.12
2019-04-14T07:09:00.942Z,78.24
2019-04-14T07:11:27.332Z,78.20
2019-04-14T07:13:53.655Z,78.40
2019-04-14T07:16:19.979Z,78.05
2019-04-14T07:18:46.314Z,77.29
2019-04-14T07:21:12.644Z,77.10
2019-04-14T07:23:38.947Z,76.94
2019-04-14T07:26:05.282Z,77.00
2019-04-14T07:28:31.613Z,76.62
2019-04-14T07:30:57.937Z,77.04
2019-04-14T07:33:24.250Z,76.35
2019-04-14T07:35:50.583Z,76.94
2019-04-14T07:38:16.889Z,77.08
2019-04-14T07:40:43.211Z,76.09
2019-04-14T07:43:09.536Z,76.75
2019-04-14T07:45:35.863Z,77.39
2019-04-14T07:48:02.181Z,76.76
2019-04-14T07:50:28.506Z,76.44
2019-04-14T07:52:54.832Z,76.67
2019-04-14T07:55:21.165Z,76.43
2019-04-14T07:57:47.495Z,76.26
2019-04-14T08:00:13.843Z,75.75
2019-04-14T08:02:40.188Z,75.19
2019-04-14T08:05:06.487Z,75.15
2019-04-14T08:07:32.812Z,74.99
2019-04-14T08:09:59.130Z,74.88
2019-04-14T08:12:25.487Z,74.68
2019-04-14T08:14:51.817Z,74.36
2019-04-14T08:17:18.144Z,73.78
2019-04-14T08:19:44.467Z,73.55
2019-04-14T08:22:10.796Z,73.22
2019-04-14T08:24:37.129Z,72.82
2019-04-14T08:27:03.438Z,72.26
2019-04-14T08:29:29.762Z,71.65
2019-04-14T08:31:56.085Z,71.57
2019-04-14T08:34:22.415Z,71.53
2019-04-14T08:36:48.733Z,71.84
2019-04-14T08:39:15.031Z,71.32
2019-04-14T08:41:41.399Z,70.87
2019-04-14T08:44:07.744Z,70.86
2019-04-14T08:46:34.069Z,70.68
2019-04-14T08:49:00.736Z,70.68
2019-04-14T08:51:27.074Z,70.21
2019-04-14T08:53:53.400Z,69.61
2019-04-14T08:56:19.713Z,69.36
2019-04-14T08:58:46.020Z,68.81
2019-04-14T09:01:12.363Z,68.79
2019-04-14T09:03:38.709Z,68.41
2019-04-14T09:06:05.031Z,67.80
2019-04-14T09:08:31.339Z,68.33
2019-04-14T09:10:57.664Z,68.66
2019-04-14T09:13:23.981Z,67.87
2019-04-14T09:15:50.285Z,68.40
2019-04-14T09:18:16.647Z,68.66
2019-04-14T09:20:52.129Z,77.56
2019-04-14T09:23:09.224Z,85.49
2019-04-14T09:25:35.553Z,96.45
2019-04-14T09:28:01.881Z,96.65
2019-04-14T09:30:28.215Z,90.51
2019-04-14T09:32:54.539Z,84.77
2019-04-14T09:35:20.862Z,86.44
2019-04-14T09:37:47.194Z,88.82
2019-04-14T09:40:13.528Z,87.90
2019-04-14T09:42:39.836Z,87.11
2019-04-14T09:45:06.194Z,85.94
2019-04-14T09:47:32.529Z,82.84
2019-04-14T09:49:58.872Z,84.55
2019-04-14T09:52:25.194Z,86.49
2019-04-14T09:54:51.499Z,77.32
2019-04-14T09:57:17.853Z,71.48
2019-04-14T09:59:44.177Z,68.36
2019-04-14T10:02:10.490Z,65.14
2019-04-14T10:04:36.821Z,63.91
2019-04-14T10:07:03.143Z,62.99
2019-04-14T10:09:29.469Z,61.69
2019-04-14T10:11:56.513Z,61.60
2019-04-14T10:14:22.270Z,61.56
2019-04-14T10:16:48.563Z,61.04
2019-04-14T10:19:14.877Z,60.76
2019-04-14T10:21:41.191Z,61.49
2019-04-14T10:24:07.535Z,60.71
2019-04-14T10:26:33.903Z,60.01
2019-04-14T10:29:00.223Z,60.04
2019-04-14T10:31:26.546Z,60.38
2019-04-14T10:33:52.866Z,60.58
2019-04-14T10:36:19.296Z,61.28
2019-04-14T10:38:45.753Z,60.59
2019-04-14T10:41:12.653Z,60.34
2019-04-14T10:43:39.138Z,60.58
2019-04-14T10:46:05.474Z,60.05
2019-04-14T10:48:31.866Z,59.92
2019-04-14T10:50:58.622Z,59.78
2019-04-14T10:53:25.132Z,60.00
2019-04-14T10:55:51.744Z,59.79
2019-04-14T10:58:18.256Z,59.87
2019-04-14T11:00:44.692Z,59.76
2019-04-14T11:03:11.548Z,59.58
2019-04-14T11:05:38.199Z,59.24
2019-04-14T11:08:04.760Z,58.73
2019-04-14T11:10:31.460Z,58.75
2019-04-14T11:12:58.661Z,57.70
2019-04-14T11:15:25.029Z,57.70
2019-04-14T11:17:51.471Z,58.31
2019-04-14T11:20:18.103Z,57.95
2019-04-14T11:22:44.609Z,56.84
2019-04-14T11:25:11.205Z,62.06
2019-04-14T11:27:37.643Z,66.29
2019-04-14T11:30:03.975Z,64.82
2019-04-14T11:32:30.590Z,67.76
2019-04-14T11:34:57.159Z,74.88
2019-04-14T11:37:23.655Z,79.12
2019-04-14T11:39:50.399Z,82.76
2019-04-14T11:42:16.881Z,86.66
2019-04-14T11:44:43.841Z,88.97
2019-04-14T11:47:10.228Z,87.38
2019-04-14T11:49:36.607Z,86.62
2019-04-14T11:52:04.630Z,85.02
2019-04-14T11:54:30.931Z,84.46
2019-04-14T11:56:57.257Z,82.83
2019-04-14T11:59:23.611Z,84.74
2019-04-14T12:01:49.957Z,82.86
2019-04-14T12:04:16.264Z,80.70
2019-04-14T12:06:42.568Z,84.63
2019-04-14T12:09:08.962Z,85.78
2019-04-14T12:11:35.291Z,85.17
2019-04-14T12:14:01.642Z,86.07
2019-04-14T12:16:27.968Z,88.28
2019-04-14T12:18:54.287Z,87.07
2019-04-14T12:21:20.602Z,86.80
2019-04-14T12:23:46.922Z,87.45
2019-04-14T12:26:13.248Z,85.88
2019-04-14T12:28:40.468Z,87.05
2019-04-14T12:31:06.529Z,84.65
2019-04-14T12:33:32.229Z,86.48
2019-04-14T12:35:58.586Z,89.38
2019-04-14T12:38:24.911Z,87.53
2019-04-14T12:40:52.342Z,86.28
2019-04-14T12:43:17.545Z,85.35
2019-04-14T12:45:43.865Z,86.17
2019-04-14T12:48:10.192Z,84.56
2019-04-14T12:50:36.496Z,82.83
2019-04-14T12:53:02.825Z,82.51
2019-04-14T12:55:29.116Z,82.35
2019-04-14T12:57:55.436Z,89.73
2019-04-14T13:00:21.767Z,90.05
2019-04-14T13:02:48.095Z,85.14
2019-04-14T13:05:14.403Z,83.42
2019-04-14T13:07:40.731Z,91.49
2019-04-14T13:10:07.060Z,100.00
2019-04-14T13:12:33.365Z,98.79
2019-04-14T13:15:02.673Z,89.83
2019-04-14T13:17:26.008Z,88.64
2019-04-14T13:19:52.341Z,88.08
2019-04-14T13:22:18.667Z,88.43
2019-04-14T13:24:44.985Z,87.57
2019-04-14T13:27:11.351Z,85.96
2019-04-14T13:29:37.682Z,86.89
2019-04-14T13:32:03.999Z,87.18
2019-04-14T13:34:30.336Z,87.35
2019-04-14T13:36:56.661Z,85.66
2019-04-14T13:39:22.991Z,87.40
2019-04-14T13:41:49.297Z,86.10
2019-04-14T13:44:15.673Z,86.12
2019-04-14T13:46:42.005Z,85.56
2019-04-14T13:49:08.326Z,86.60
2019-04-14T13:51:34.634Z,89.71
2019-04-14T13:54:00.961Z,87.61
2019-04-14T13:56:27.264Z,86.24
2019-04-14T13:58:53.616Z,84.62
2019-04-14T14:01:19.915Z,82.16
2019-04-14T14:03:46.243Z,85.09
2019-04-14T14:06:12.567Z,81.24
2019-04-14T14:08:38.937Z,84.85
2019-04-14T14:11:05.205Z,89.28
2019-04-14T14:13:31.514Z,83.05
2019-04-14T14:15:57.829Z,84.54
2019-04-14T14:18:24.162Z,80.57
2019-04-14T14:20:50.498Z,76.82
2019-04-14T14:23:16.816Z,82.92
2019-04-14T14:25:43.166Z,83.22
2019-04-14T14:28:09.475Z,78.11
2019-04-14T14:30:35.809Z,81.62
2019-04-14T14:33:02.135Z,81.02
2019-04-14T14:35:28.474Z,79.39
2019-04-14T14:37:54.810Z,80.79
2019-04-14T14:40:21.152Z,78.09
2019-04-14T14:42:47.484Z,75.50
2019-04-14T14:45:13.796Z,78.21
2019-04-14T14:47:40.143Z,77.36
2019-04-14T14:50:06.474Z,77.22
2019-04-14T14:52:32.820Z,77.36
2019-04-14T14:54:59.130Z,75.85
2019-04-14T14:57:25.446Z,74.61
2019-04-14T14:59:51.795Z,73.60
2019-04-14T15:02:18.096Z,76.08
2019-04-14T15:04:44.405Z,76.47
2019-04-14T15:07:10.718Z,75.51
2019-04-14T15:09:37.046Z,77.01
2019-04-14T15:12:03.376Z,76.14
2019-04-14T15:14:29.735Z,74.28
2019-04-14T15:16:56.039Z,74.09
2019-04-14T15:19:22.384Z,74.60
2019-04-14T15:21:48.674Z,75.42
2019-04-14T15:24:14.984Z,75.19
2019-04-14T15:26:41.299Z,75.43
2019-04-14T15:29:07.633Z,75.83
2019-04-14T15:31:33.955Z,76.15
2019-04-14T15:34:00.276Z,77.06
2019-04-14T15:36:26.641Z,76.56
2019-04-14T15:38:52.963Z,74.92
2019-04-14T15:41:19.275Z,75.56
2019-04-14T15:43:45.579Z,76.60
2019-04-14T15:46:11.911Z,76.67
2019-04-14T15:48:38.237Z,76.78
2019-04-14T15:51:04.558Z,77.83
2019-04-14T15:53:37.762Z,78.58
2019-04-14T15:55:57.234Z,78.99
2019-04-14T15:58:23.561Z,77.26
2019-04-14T16:00:49.882Z,76.25
2019-04-14T16:03:16.188Z,76.30
2019-04-14T16:05:43.709Z,77.16
2019-04-14T16:08:08.838Z,77.34
2019-04-14T16:10:35.165Z,77.47
2019-04-14T16:13:02.698Z,76.85
2019-04-14T16:15:29.013Z,76.04
2019-04-14T16:17:55.346Z,76.36
2019-04-14T16:20:21.705Z,76.32
2019-04-14T16:22:48.025Z,76.33
2019-04-14T16:25:14.346Z,76.02
2019-04-14T16:27:40.659Z,75.73
2019-04-14T16:30:06.985Z,75.75
2019-04-14T16:32:33.307Z,75.63
2019-04-14T16:34:59.608Z,76.15
2019-04-14T16:37:25.973Z,76.58
2019-04-14T16:39:52.296Z,76.56
2019-04-14T16:42:18.748Z,76.20
2019-04-14T16:44:45.078Z,76.20
2019-04-14T16:47:11.398Z,76.32
2019-04-14T16:49:37.803Z,81.04
2019-04-14T16:52:07.206Z,88.14
2019-04-14T16:54:33.539Z,84.58
2019-04-14T16:56:59.889Z,81.25
2019-04-14T16:59:26.230Z,79.36
2019-04-14T17:01:52.540Z,78.82
2019-04-14T17:04:18.929Z,78.24
2019-04-14T17:06:45.233Z,78.15
2019-04-14T17:09:11.541Z,78.06
2019-04-14T17:11:37.847Z,77.59
2019-04-14T17:14:04.247Z,77.72
2019-04-14T17:16:30.606Z,78.15
2019-04-14T17:18:56.938Z,77.76
2019-04-14T17:21:23.472Z,77.92
2019-04-14T17:23:49.818Z,77.96
2019-04-14T17:26:16.236Z,77.89
2019-04-14T17:28:42.558Z,78.02
2019-04-14T17:31:09.091Z,77.58
2019-04-14T17:33:35.423Z,77.15
2019-04-14T17:36:01.732Z,76.68
2019-04-14T17:38:28.096Z,76.93
2019-04-14T17:40:54.410Z,76.85
2019-04-14T17:43:20.753Z,76.94
2019-04-14T17:45:47.104Z,76.69
2019-04-14T17:48:13.428Z,75.91
2019-04-14T17:50:40.824Z,76.37
2019-04-14T17:53:06.075Z,76.59
2019-04-14T17:55:32.406Z,76.09
2019-04-14T17:57:58.716Z,75.88
2019-04-14T18:00:25.063Z,75.75
2019-04-14T18:02:51.380Z,75.48
2019-04-14T18:05:17.685Z,75.43
2019-04-14T18:07:44.003Z,76.30
2019-04-14T18:10:10.318Z,76.96
2019-04-14T18:12:36.650Z,75.77
2019-04-14T18:15:02.986Z,76.35
2019-04-14T18:17:29.307Z,76.08
2019-04-14T18:19:55.618Z,75.86
2019-04-14T18:22:21.947Z,75.24
2019-04-14T18:24:48.253Z,76.52
2019-04-14T18:27:14.627Z,77.05
2019-04-14T18:29:40.965Z,77.54
2019-04-14T18:32:07.284Z,77.52
2019-04-14T18:37:14.078Z,77.76
2019-04-14T18:39:40.485Z,77.52
2019-04-14T18:42:06.796Z,76.93
2019-04-14T18:44:37.147Z,77.16
2019-04-14T18:47:15.020Z,77.13
2019-04-14T18:49:43.710Z,77.46
2019-04-14T18:52:17.408Z,78.65
2019-04-14T18:54:54.407Z,78.75
2019-04-14T18:57:19.054Z,78.70
2019-04-14T18:59:45.483Z,78.59
2019-04-14T19:02:11.794Z,81.29
2019-04-14T19:04:38.335Z,81.19
2019-04-14T19:09:39.898Z,79.92
2019-04-14T19:12:06.232Z,79.21
2019-04-14T19:14:32.536Z,78.53
2019-04-14T19:16:58.874Z,79.07
2019-04-14T19:19:25.200Z,78.78
2019-04-14T19:21:51.543Z,78.56
2019-04-14T19:24:17.874Z,79.06
2019-04-14T19:26:44.198Z,78.96
2019-04-14T19:29:10.509Z,79.51
2019-04-14T19:31:36.839Z,79.76
2019-04-14T19:34:03.195Z,79.94
2019-04-14T19:36:29.531Z,79.74
2019-04-14T19:38:55.849Z,79.83
2019-04-14T19:41:22.174Z,79.74
2019-04-14T19:43:48.481Z,79.81
2019-04-14T19:46:14.806Z,79.87
2019-04-14T19:48:41.135Z,79.98
2019-04-14T19:51:07.464Z,79.65
2019-04-14T19:53:33.786Z,79.58
2019-04-14T19:56:00.134Z,79.62
2019-04-14T19:58:26.455Z,79.90
2019-04-14T20:00:52.782Z,79.68
2019-04-14T20:03:19.109Z,79.70
2019-04-14T20:05:45.438Z,79.70
2019-04-14T20:08:11.744Z,80.33
2019-04-14T20:10:38.070Z,80.61
2019-04-14T20:13:04.412Z,80.60
2019-04-14T20:15:30.724Z,80.08
2019-04-14T20:17:57.042Z,80.03
2019-04-14T20:20:23.355Z,80.52
2019-04-14T20:22:49.648Z,80.79
2019-04-14T20:25:15.975Z,80.77
2019-04-14T20:27:42.275Z,80.62
2019-04-14T20:30:08.588Z,80.43
2019-04-14T20:32:34.910Z,80.14
2019-04-14T20:35:01.215Z,80.10
2019-04-14T20:37:27.536Z,80.19
2019-04-14T20:39:53.846Z,81.84
2019-04-14T20:42:20.153Z,82.61
2019-04-14T20:44:46.468Z,83.12
2019-04-14T20:47:12.794Z,83.09
2019-04-14T20:49:39.120Z,86.62
2019-04-14T20:52:05.446Z,88.21
2019-04-14T20:54:34.268Z,88.30
2019-04-14T20:57:00.618Z,88.64
2019-04-14T20:59:26.957Z,89.50
2019-04-14T21:01:53.276Z,89.57
2019-04-14T21:04:19.599Z,89.33
2019-04-14T21:06:45.895Z,88.94
2019-04-14T21:09:12.224Z,88.92
2019-04-14T21:11:38.540Z,88.79
2019-04-14T21:14:04.865Z,89.94
2019-04-14T21:16:31.167Z,89.01
2019-04-14T21:18:57.500Z,87.83
2019-04-14T21:21:23.803Z,88.71
2019-04-14T21:23:50.130Z,88.02
2019-04-14T21:26:16.457Z,87.59
2019-04-14T21:28:42.953Z,87.29
2019-04-14T21:31:09.272Z,87.29
2019-04-14T21:33:35.594Z,86.67
2019-04-14T21:36:01.910Z,87.73
2019-04-14T21:38:28.229Z,87.42
2019-04-14T21:40:54.588Z,87.95
2019-04-14T21:43:20.911Z,88.59
2019-04-14T21:45:47.292Z,89.04
2019-04-14T21:48:13.553Z,89.85
2019-04-14T21:50:39.876Z,89.29
2019-04-14T21:53:06.205Z,89.24
2019-04-14T21:55:32.512Z,89.89
2019-04-14T21:57:58.855Z,90.12
2019-04-14T22:00:25.164Z,91.25
2019-04-14T22:02:51.497Z,91.62
2019-04-14T22:05:17.803Z,92.60
2019-04-14T22:07:44.121Z,92.90
2019-04-14T22:10:10.462Z,92.98
2019-04-14T22:12:36.833Z,92.90
2019-04-14T22:15:03.138Z,92.24
2019-04-14T22:17:29.456Z,92.87
2019-04-14T22:19:55.765Z,93.00
2019-04-14T22:22:22.093Z,93.38
2019-04-14T22:24:50.952Z,93.72
2019-04-14T22:27:14.855Z,94.39
2019-04-14T22:29:41.180Z,95.58
2019-04-14T22:32:07.474Z,95.66
2019-04-14T22:34:33.813Z,96.57
2019-04-14T22:37:00.200Z,96.79
2019-04-14T22:39:26.507Z,96.08
2019-04-14T22:41:52.902Z,95.80
2019-04-14T22:44:19.227Z,96.73
2019-04-14T22:46:45.547Z,95.81
2019-04-14T22:49:11.898Z,95.40
2019-04-14T22:51:38.210Z,95.27
2019-04-14T22:54:04.595Z,95.23
2019-04-14T22:56:39.263Z,95.23
2019-04-14T22:58:57.149Z,94.86
2019-04-14T23:01:23.470Z,94.33
2019-04-14T23:03:49.796Z,93.66
2019-04-14T23:06:16.125Z,93.59
2019-04-14T23:08:42.446Z,93.01
2019-04-14T23:11:08.777Z,92.59
2019-04-14T23:13:35.100Z,92.48
2019-04-14T23:16:01.398Z,92.35
2019-04-14T23:18:27.708Z,91.75
2019-04-14T23:20:54.041Z,92.35
2019-04-14T23:23:20.366Z,93.10
2019-04-14T23:25:46.679Z,93.59
2019-04-14T23:28:13.002Z,94.48
2019-04-14T23:30:39.308Z,94.55
2019-04-14T23:33:05.643Z,93.64
2019-04-14T23:35:31.959Z,93.48
2019-04-14T23:37:58.261Z,93.87
2019-04-14T23:40:24.606Z,95.57
2019-04-14T23:42:50.903Z,96.16
2019-04-14T23:45:17.232Z,97.15
2019-04-14T23:47:43.549Z,98.46
2019-04-14T23:50:09.873Z,99.51
2019-04-14T23:52:36.198Z,99.73
2019-04-14T23:55:02.515Z,99.86
2019-04-14T23:57:28.847Z,100.00
2019-04-14T23:59:55.149Z,100.00
